sensor_id;sensor_type;location;lat;lon;timestamp;P1;durP1;ratioP1;P2;durP2;ratioP2
66567;SDS011;53422;49.296;6.900;2024-01-30T00:01:05;26.17;;;10.45;;
66567;SDS011;53422;49.296;6.900;2024-01-30T00:03:31;24.58;;;9.98;;
66567;SDS011;53422;49.296;6.900;2024-01-30T00:05:56;21.70;;;9.77;;
66567;SDS011;53422;49.296;6.900;2024-01-30T00:08:22;20.60;;;9.60;;
66567;SDS011;53422;49.296;6.900;2024-01-30T00:10:48;20.38;;;9.00;;
66567;SDS011;53422;49.296;6.900;2024-01-30T00:13:13;22.95;;;9.73;;
66567;SDS011;53422;49.296;6.900;2024-01-30T00:15:41;22.70;;;9.27;;
66567;SDS011;53422;49.296;6.900;2024-01-30T00:18:07;27.05;;;11.52;;
66567;SDS011;53422;49.296;6.900;2024-01-30T00:20:32;21.77;;;10.00;;
66567;SDS011;53422;49.296;6.900;2024-01-30T00:22:58;24.23;;;9.80;;
66567;SDS011;53422;49.296;6.900;2024-01-30T00:25:23;16.67;;;8.73;;
66567;SDS011;53422;49.296;6.900;2024-01-30T00:27:49;23.17;;;11.30;;
66567;SDS011;53422;49.296;6.900;2024-01-30T00:30:15;25.95;;;10.48;;
66567;SDS011;53422;49.296;6.900;2024-01-30T00:32:40;20.88;;;9.60;;
66567;SDS011;53422;49.296;6.900;2024-01-30T00:35:06;25.30;;;10.80;;
66567;SDS011;53422;49.296;6.900;2024-01-30T00:37:32;23.63;;;9.60;;
66567;SDS011;53422;49.296;6.900;2024-01-30T00:39:57;25.23;;;9.18;;
66567;SDS011;53422;49.296;6.900;2024-01-30T00:42:23;20.00;;;9.65;;
66567;SDS011;53422;49.296;6.900;2024-01-30T00:44:49;21.80;;;8.75;;
66567;SDS011;53422;49.296;6.900;2024-01-30T00:47:15;19.48;;;8.85;;
66567;SDS011;53422;49.296;6.900;2024-01-30T00:49:40;22.92;;;9.05;;
66567;SDS011;53422;49.296;6.900;2024-01-30T00:52:06;19.50;;;8.73;;
66567;SDS011;53422;49.296;6.900;2024-01-30T00:54:32;19.38;;;8.50;;
66567;SDS011;53422;49.296;6.900;2024-01-30T00:56:57;22.38;;;9.40;;
66567;SDS011;53422;49.296;6.900;2024-01-30T00:59:24;19.73;;;8.30;;
66567;SDS011;53422;49.296;6.900;2024-01-30T01:01:50;21.52;;;8.07;;
66567;SDS011;53422;49.296;6.900;2024-01-30T01:04:15;22.38;;;10.27;;
66567;SDS011;53422;49.296;6.900;2024-01-30T01:06:42;15.73;;;7.63;;
66567;SDS011;53422;49.296;6.900;2024-01-30T01:09:09;17.45;;;7.80;;
66567;SDS011;53422;49.296;6.900;2024-01-30T01:11:36;18.05;;;6.95;;
66567;SDS011;53422;49.296;6.900;2024-01-30T01:14:03;17.60;;;7.18;;
66567;SDS011;53422;49.296;6.900;2024-01-30T01:16:29;17.67;;;6.97;;
66567;SDS011;53422;49.296;6.900;2024-01-30T01:18:54;19.95;;;8.57;;
66567;SDS011;53422;49.296;6.900;2024-01-30T01:21:20;18.77;;;7.43;;
66567;SDS011;53422;49.296;6.900;2024-01-30T01:23:46;15.98;;;6.68;;
66567;SDS011;53422;49.296;6.900;2024-01-30T01:26:11;16.83;;;7.38;;
66567;SDS011;53422;49.296;6.900;2024-01-30T01:28:39;15.95;;;6.78;;
66567;SDS011;53422;49.296;6.900;2024-01-30T01:31:06;16.45;;;6.93;;
66567;SDS011;53422;49.296;6.900;2024-01-30T01:33:32;17.88;;;7.43;;
66567;SDS011;53422;49.296;6.900;2024-01-30T01:35:58;13.20;;;6.43;;
66567;SDS011;53422;49.296;6.900;2024-01-30T01:38:25;17.83;;;8.52;;
66567;SDS011;53422;49.296;6.900;2024-01-30T01:40:50;16.98;;;6.82;;
66567;SDS011;53422;49.296;6.900;2024-01-30T01:43:16;17.38;;;7.28;;
66567;SDS011;53422;49.296;6.900;2024-01-30T01:45:42;14.32;;;6.97;;
66567;SDS011;53422;49.296;6.900;2024-01-30T01:48:08;14.45;;;5.95;;
66567;SDS011;53422;49.296;6.900;2024-01-30T01:50:34;16.92;;;6.50;;
66567;SDS011;53422;49.296;6.900;2024-01-30T01:53:01;13.73;;;6.30;;
66567;SDS011;53422;49.296;6.900;2024-01-30T01:55:27;11.45;;;5.60;;
66567;SDS011;53422;49.296;6.900;2024-01-30T01:57:55;16.58;;;6.97;;
66567;SDS011;53422;49.296;6.900;2024-01-30T02:00:21;15.98;;;6.78;;
66567;SDS011;53422;49.296;6.900;2024-01-30T02:02:47;14.65;;;6.07;;
66567;SDS011;53422;49.296;6.900;2024-01-30T02:05:13;15.07;;;6.38;;
66567;SDS011;53422;49.296;6.900;2024-01-30T02:07:40;13.05;;;5.78;;
66567;SDS011;53422;49.296;6.900;2024-01-30T02:10:07;15.10;;;6.50;;
66567;SDS011;53422;49.296;6.900;2024-01-30T02:12:33;11.63;;;6.15;;
66567;SDS011;53422;49.296;6.900;2024-01-30T02:14:59;12.07;;;5.15;;
66567;SDS011;53422;49.296;6.900;2024-01-30T02:17:25;13.32;;;6.57;;
66567;SDS011;53422;49.296;6.900;2024-01-30T02:19:51;12.23;;;5.78;;
66567;SDS011;53422;49.296;6.900;2024-01-30T02:22:17;12.70;;;6.00;;
66567;SDS011;53422;49.296;6.900;2024-01-30T02:24:44;14.15;;;6.78;;
66567;SDS011;53422;49.296;6.900;2024-01-30T02:27:09;15.68;;;6.50;;
66567;SDS011;53422;49.296;6.900;2024-01-30T02:29:35;13.48;;;6.00;;
66567;SDS011;53422;49.296;6.900;2024-01-30T02:32:01;14.80;;;6.57;;
66567;SDS011;53422;49.296;6.900;2024-01-30T02:34:27;14.40;;;6.35;;
66567;SDS011;53422;49.296;6.900;2024-01-30T02:36:52;10.75;;;5.40;;
66567;SDS011;53422;49.296;6.900;2024-01-30T02:39:18;13.35;;;5.45;;
66567;SDS011;53422;49.296;6.900;2024-01-30T02:41:43;10.90;;;5.68;;
66567;SDS011;53422;49.296;6.900;2024-01-30T02:44:09;13.43;;;6.07;;
66567;SDS011;53422;49.296;6.900;2024-01-30T02:46:35;10.98;;;6.05;;
66567;SDS011;53422;49.296;6.900;2024-01-30T02:49:00;16.30;;;7.18;;
66567;SDS011;53422;49.296;6.900;2024-01-30T02:51:30;18.55;;;7.35;;
66567;SDS011;53422;49.296;6.900;2024-01-30T02:53:55;12.63;;;5.47;;
66567;SDS011;53422;49.296;6.900;2024-01-30T02:56:21;13.50;;;5.50;;
66567;SDS011;53422;49.296;6.900;2024-01-30T02:58:46;13.70;;;5.60;;
66567;SDS011;53422;49.296;6.900;2024-01-30T03:01:12;14.20;;;6.15;;
66567;SDS011;53422;49.296;6.900;2024-01-30T03:03:38;15.13;;;6.53;;
66567;SDS011;53422;49.296;6.900;2024-01-30T03:06:05;12.27;;;4.97;;
66567;SDS011;53422;49.296;6.900;2024-01-30T03:08:32;11.95;;;6.03;;
66567;SDS011;53422;49.296;6.900;2024-01-30T03:10:59;13.13;;;5.63;;
66567;SDS011;53422;49.296;6.900;2024-01-30T03:13:25;14.00;;;5.35;;
66567;SDS011;53422;49.296;6.900;2024-01-30T03:15:51;12.82;;;5.57;;
66567;SDS011;53422;49.296;6.900;2024-01-30T03:18:17;11.98;;;5.00;;
66567;SDS011;53422;49.296;6.900;2024-01-30T03:20:43;14.77;;;5.85;;
66567;SDS011;53422;49.296;6.900;2024-01-30T03:23:08;11.93;;;5.13;;
66567;SDS011;53422;49.296;6.900;2024-01-30T03:25:34;12.98;;;5.72;;
66567;SDS011;53422;49.296;6.900;2024-01-30T03:28:00;12.82;;;5.32;;
66567;SDS011;53422;49.296;6.900;2024-01-30T03:30:25;11.25;;;5.45;;
66567;SDS011;53422;49.296;6.900;2024-01-30T03:32:51;11.07;;;5.13;;
66567;SDS011;53422;49.296;6.900;2024-01-30T03:35:18;14.45;;;5.25;;
66567;SDS011;53422;49.296;6.900;2024-01-30T03:37:44;13.25;;;5.25;;
66567;SDS011;53422;49.296;6.900;2024-01-30T03:40:10;12.65;;;5.85;;
66567;SDS011;53422;49.296;6.900;2024-01-30T03:42:36;13.85;;;4.88;;
66567;SDS011;53422;49.296;6.900;2024-01-30T03:45:01;9.65;;;4.60;;
66567;SDS011;53422;49.296;6.900;2024-01-30T03:47:27;11.15;;;4.93;;
66567;SDS011;53422;49.296;6.900;2024-01-30T03:49:53;9.93;;;4.85;;
66567;SDS011;53422;49.296;6.900;2024-01-30T03:52:18;11.23;;;4.57;;
66567;SDS011;53422;49.296;6.900;2024-01-30T03:54:44;10.10;;;4.65;;
66567;SDS011;53422;49.296;6.900;2024-01-30T03:57:10;11.10;;;5.15;;
66567;SDS011;53422;49.296;6.900;2024-01-30T03:59:36;9.63;;;5.30;;
66567;SDS011;53422;49.296;6.900;2024-01-30T04:02:01;13.32;;;4.68;;
66567;SDS011;53422;49.296;6.900;2024-01-30T04:04:27;10.23;;;4.88;;
66567;SDS011;53422;49.296;6.900;2024-01-30T04:06:53;13.73;;;5.68;;
66567;SDS011;53422;49.296;6.900;2024-01-30T04:09:18;12.30;;;5.32;;
66567;SDS011;53422;49.296;6.900;2024-01-30T04:11:44;10.55;;;4.95;;
66567;SDS011;53422;49.296;6.900;2024-01-30T04:14:10;15.90;;;5.93;;
66567;SDS011;53422;49.296;6.900;2024-01-30T04:16:36;12.40;;;5.28;;
66567;SDS011;53422;49.296;6.900;2024-01-30T04:19:01;12.90;;;5.75;;
66567;SDS011;53422;49.296;6.900;2024-01-30T04:21:27;13.93;;;4.68;;
66567;SDS011;53422;49.296;6.900;2024-01-30T04:23:53;9.32;;;4.90;;
66567;SDS011;53422;49.296;6.900;2024-01-30T04:26:18;11.63;;;5.05;;
66567;SDS011;53422;49.296;6.900;2024-01-30T04:28:44;8.93;;;3.97;;
66567;SDS011;53422;49.296;6.900;2024-01-30T04:31:10;10.18;;;5.00;;
66567;SDS011;53422;49.296;6.900;2024-01-30T04:33:36;9.90;;;4.18;;
66567;SDS011;53422;49.296;6.900;2024-01-30T04:36:02;11.13;;;4.93;;
66567;SDS011;53422;49.296;6.900;2024-01-30T04:38:28;10.77;;;4.60;;
66567;SDS011;53422;49.296;6.900;2024-01-30T04:40:54;9.23;;;4.78;;
66567;SDS011;53422;49.296;6.900;2024-01-30T04:43:20;12.02;;;4.70;;
66567;SDS011;53422;49.296;6.900;2024-01-30T04:45:46;10.93;;;4.70;;
66567;SDS011;53422;49.296;6.900;2024-01-30T04:48:12;11.43;;;4.70;;
66567;SDS011;53422;49.296;6.900;2024-01-30T04:50:38;7.88;;;3.83;;
66567;SDS011;53422;49.296;6.900;2024-01-30T04:53:04;8.52;;;4.03;;
66567;SDS011;53422;49.296;6.900;2024-01-30T04:55:30;11.45;;;4.50;;
66567;SDS011;53422;49.296;6.900;2024-01-30T04:57:55;9.73;;;4.40;;
66567;SDS011;53422;49.296;6.900;2024-01-30T05:00:21;7.05;;;3.75;;
66567;SDS011;53422;49.296;6.900;2024-01-30T05:02:46;7.13;;;4.10;;
66567;SDS011;53422;49.296;6.900;2024-01-30T05:05:12;8.68;;;3.92;;
66567;SDS011;53422;49.296;6.900;2024-01-30T05:07:38;9.00;;;4.35;;
66567;SDS011;53422;49.296;6.900;2024-01-30T05:10:06;8.35;;;4.13;;
66567;SDS011;53422;49.296;6.900;2024-01-30T05:12:32;10.65;;;4.75;;
66567;SDS011;53422;49.296;6.900;2024-01-30T05:14:57;9.57;;;4.47;;
66567;SDS011;53422;49.296;6.900;2024-01-30T05:17:23;11.05;;;4.45;;
66567;SDS011;53422;49.296;6.900;2024-01-30T05:19:48;7.88;;;3.75;;
66567;SDS011;53422;49.296;6.900;2024-01-30T05:22:14;9.73;;;4.53;;
66567;SDS011;53422;49.296;6.900;2024-01-30T05:24:41;9.60;;;4.20;;
66567;SDS011;53422;49.296;6.900;2024-01-30T05:27:07;13.55;;;5.07;;
66567;SDS011;53422;49.296;6.900;2024-01-30T05:29:33;8.73;;;4.25;;
66567;SDS011;53422;49.296;6.900;2024-01-30T05:31:59;9.05;;;4.35;;
66567;SDS011;53422;49.296;6.900;2024-01-30T05:34:24;11.02;;;4.75;;
66567;SDS011;53422;49.296;6.900;2024-01-30T05:36:50;10.82;;;4.32;;
66567;SDS011;53422;49.296;6.900;2024-01-30T05:39:16;12.15;;;5.43;;
66567;SDS011;53422;49.296;6.900;2024-01-30T05:41:41;14.43;;;6.32;;
66567;SDS011;53422;49.296;6.900;2024-01-30T05:44:07;10.13;;;5.53;;
66567;SDS011;53422;49.296;6.900;2024-01-30T05:46:33;10.82;;;5.18;;
66567;SDS011;53422;49.296;6.900;2024-01-30T05:49:00;11.25;;;5.32;;
66567;SDS011;53422;49.296;6.900;2024-01-30T05:51:26;13.20;;;6.10;;
66567;SDS011;53422;49.296;6.900;2024-01-30T05:53:53;15.32;;;5.47;;
66567;SDS011;53422;49.296;6.900;2024-01-30T05:56:19;12.73;;;6.80;;
66567;SDS011;53422;49.296;6.900;2024-01-30T05:58:44;12.85;;;5.22;;
66567;SDS011;53422;49.296;6.900;2024-01-30T06:01:10;13.18;;;5.85;;
66567;SDS011;53422;49.296;6.900;2024-01-30T06:03:36;11.70;;;5.95;;
66567;SDS011;53422;49.296;6.900;2024-01-30T06:06:02;10.88;;;5.75;;
66567;SDS011;53422;49.296;6.900;2024-01-30T06:08:27;11.32;;;5.55;;
66567;SDS011;53422;49.296;6.900;2024-01-30T06:10:53;12.57;;;6.43;;
66567;SDS011;53422;49.296;6.900;2024-01-30T06:13:19;11.70;;;5.40;;
66567;SDS011;53422;49.296;6.900;2024-01-30T06:15:45;13.77;;;6.10;;
66567;SDS011;53422;49.296;6.900;2024-01-30T06:18:10;11.10;;;5.35;;
66567;SDS011;53422;49.296;6.900;2024-01-30T06:20:36;15.00;;;5.65;;
66567;SDS011;53422;49.296;6.900;2024-01-30T06:23:02;11.75;;;4.85;;
66567;SDS011;53422;49.296;6.900;2024-01-30T06:25:27;13.02;;;5.82;;
66567;SDS011;53422;49.296;6.900;2024-01-30T06:27:53;12.23;;;5.38;;
66567;SDS011;53422;49.296;6.900;2024-01-30T06:30:19;12.73;;;5.47;;
66567;SDS011;53422;49.296;6.900;2024-01-30T06:32:45;13.57;;;6.15;;
66567;SDS011;53422;49.296;6.900;2024-01-30T06:35:10;16.35;;;6.15;;
66567;SDS011;53422;49.296;6.900;2024-01-30T06:37:36;16.50;;;7.15;;
66567;SDS011;53422;49.296;6.900;2024-01-30T06:40:02;15.68;;;6.55;;
66567;SDS011;53422;49.296;6.900;2024-01-30T06:42:30;14.35;;;6.90;;
66567;SDS011;53422;49.296;6.900;2024-01-30T06:44:55;15.25;;;7.47;;
66567;SDS011;53422;49.296;6.900;2024-01-30T06:47:21;17.38;;;7.70;;
66567;SDS011;53422;49.296;6.900;2024-01-30T06:49:47;18.70;;;8.88;;
66567;SDS011;53422;49.296;6.900;2024-01-30T06:52:12;23.38;;;10.63;;
66567;SDS011;53422;49.296;6.900;2024-01-30T06:54:39;20.70;;;8.18;;
66567;SDS011;53422;49.296;6.900;2024-01-30T06:57:04;16.98;;;7.47;;
66567;SDS011;53422;49.296;6.900;2024-01-30T06:59:34;20.40;;;7.97;;
66567;SDS011;53422;49.296;6.900;2024-01-30T07:02:00;15.10;;;6.97;;
66567;SDS011;53422;49.296;6.900;2024-01-30T07:04:25;12.65;;;5.40;;
66567;SDS011;53422;49.296;6.900;2024-01-30T07:06:51;18.95;;;6.97;;
66567;SDS011;53422;49.296;6.900;2024-01-30T07:09:18;17.40;;;6.07;;
66567;SDS011;53422;49.296;6.900;2024-01-30T07:11:44;18.60;;;7.32;;
66567;SDS011;53422;49.296;6.900;2024-01-30T07:14:09;15.30;;;6.47;;
66567;SDS011;53422;49.296;6.900;2024-01-30T07:16:35;13.52;;;5.95;;
66567;SDS011;53422;49.296;6.900;2024-01-30T07:19:01;14.55;;;6.72;;
66567;SDS011;53422;49.296;6.900;2024-01-30T07:21:27;12.95;;;6.35;;
66567;SDS011;53422;49.296;6.900;2024-01-30T07:23:53;16.80;;;6.68;;
66567;SDS011;53422;49.296;6.900;2024-01-30T07:26:20;18.58;;;6.80;;
66567;SDS011;53422;49.296;6.900;2024-01-30T07:28:45;18.95;;;7.05;;
66567;SDS011;53422;49.296;6.900;2024-01-30T07:31:11;23.20;;;8.88;;
66567;SDS011;53422;49.296;6.900;2024-01-30T07:33:37;16.05;;;6.75;;
66567;SDS011;53422;49.296;6.900;2024-01-30T07:36:02;16.05;;;5.93;;
66567;SDS011;53422;49.296;6.900;2024-01-30T07:38:28;18.23;;;6.68;;
66567;SDS011;53422;49.296;6.900;2024-01-30T07:40:56;16.98;;;6.53;;
66567;SDS011;53422;49.296;6.900;2024-01-30T07:43:22;16.27;;;5.63;;
66567;SDS011;53422;49.296;6.900;2024-01-30T07:45:47;13.13;;;6.32;;
66567;SDS011;53422;49.296;6.900;2024-01-30T07:48:13;15.45;;;7.55;;
66567;SDS011;53422;49.296;6.900;2024-01-30T07:50:39;12.50;;;5.05;;
66567;SDS011;53422;49.296;6.900;2024-01-30T07:53:04;10.20;;;4.35;;
66567;SDS011;53422;49.296;6.900;2024-01-30T08:02:14;28.83;;;11.32;;
66567;SDS011;53422;49.296;6.900;2024-01-30T08:04:40;21.35;;;10.10;;
66567;SDS011;53422;49.296;6.900;2024-01-30T08:07:06;23.70;;;9.57;;
66567;SDS011;53422;49.296;6.900;2024-01-30T08:09:32;12.60;;;6.00;;
66567;SDS011;53422;49.296;6.900;2024-01-30T08:11:57;14.07;;;6.65;;
66567;SDS011;53422;49.296;6.900;2024-01-30T08:14:23;17.10;;;7.85;;
66567;SDS011;53422;49.296;6.900;2024-01-30T08:16:49;18.13;;;8.07;;
66567;SDS011;53422;49.296;6.900;2024-01-30T08:19:14;18.00;;;8.50;;
66567;SDS011;53422;49.296;6.900;2024-01-30T08:21:40;14.68;;;6.20;;
66567;SDS011;53422;49.296;6.900;2024-01-30T08:24:06;11.30;;;3.83;;
66567;SDS011;53422;49.296;6.900;2024-01-30T08:26:33;9.30;;;3.22;;
66567;SDS011;53422;49.296;6.900;2024-01-30T08:28:58;7.75;;;3.67;;
66567;SDS011;53422;49.296;6.900;2024-01-30T08:31:24;6.85;;;3.10;;
66567;SDS011;53422;49.296;6.900;2024-01-30T08:33:50;9.65;;;3.92;;
66567;SDS011;53422;49.296;6.900;2024-01-30T08:36:16;7.95;;;3.83;;
66567;SDS011;53422;49.296;6.900;2024-01-30T08:38:42;10.93;;;5.18;;
66567;SDS011;53422;49.296;6.900;2024-01-30T08:41:08;6.57;;;3.10;;
66567;SDS011;53422;49.296;6.900;2024-01-30T08:43:34;7.43;;;3.63;;
66567;SDS011;53422;49.296;6.900;2024-01-30T08:46:00;9.13;;;4.00;;
66567;SDS011;53422;49.296;6.900;2024-01-30T08:48:26;7.47;;;3.75;;
66567;SDS011;53422;49.296;6.900;2024-01-30T08:50:51;8.02;;;3.40;;
66567;SDS011;53422;49.296;6.900;2024-01-30T08:53:17;10.05;;;3.70;;
66567;SDS011;53422;49.296;6.900;2024-01-30T08:55:43;8.52;;;3.72;;
66567;SDS011;53422;49.296;6.900;2024-01-30T08:58:09;7.05;;;3.33;;
66567;SDS011;53422;49.296;6.900;2024-01-30T09:00:35;9.50;;;4.38;;
66567;SDS011;53422;49.296;6.900;2024-01-30T09:03:01;6.68;;;3.25;;
66567;SDS011;53422;49.296;6.900;2024-01-30T09:05:26;10.68;;;4.43;;
66567;SDS011;53422;49.296;6.900;2024-01-30T09:07:52;12.70;;;5.18;;
66567;SDS011;53422;49.296;6.900;2024-01-30T09:10:18;11.07;;;5.18;;
66567;SDS011;53422;49.296;6.900;2024-01-30T09:12:44;9.85;;;4.88;;
66567;SDS011;53422;49.296;6.900;2024-01-30T09:15:09;9.70;;;4.32;;
66567;SDS011;53422;49.296;6.900;2024-01-30T09:17:35;10.65;;;4.85;;
66567;SDS011;53422;49.296;6.900;2024-01-30T09:20:01;8.60;;;5.07;;
66567;SDS011;53422;49.296;6.900;2024-01-30T09:22:26;7.68;;;4.15;;
66567;SDS011;53422;49.296;6.900;2024-01-30T09:24:52;12.15;;;5.65;;
66567;SDS011;53422;49.296;6.900;2024-01-30T09:27:17;6.13;;;3.00;;
66567;SDS011;53422;49.296;6.900;2024-01-30T09:29:43;8.13;;;3.88;;
66567;SDS011;53422;49.296;6.900;2024-01-30T09:32:09;8.20;;;3.13;;
66567;SDS011;53422;49.296;6.900;2024-01-30T09:34:35;5.68;;;3.33;;
66567;SDS011;53422;49.296;6.900;2024-01-30T09:37:00;8.32;;;3.58;;
66567;SDS011;53422;49.296;6.900;2024-01-30T09:39:26;10.57;;;4.18;;
66567;SDS011;53422;49.296;6.900;2024-01-30T09:41:56;9.00;;;4.32;;
66567;SDS011;53422;49.296;6.900;2024-01-30T09:44:30;8.77;;;4.03;;
66567;SDS011;53422;49.296;6.900;2024-01-30T09:46:56;10.25;;;4.13;;
66567;SDS011;53422;49.296;6.900;2024-01-30T09:49:28;18.17;;;7.00;;
66567;SDS011;53422;49.296;6.900;2024-01-30T09:51:56;10.85;;;5.18;;
66567;SDS011;53422;49.296;6.900;2024-01-30T09:54:22;7.63;;;3.53;;
66567;SDS011;53422;49.296;6.900;2024-01-30T09:56:48;10.80;;;4.88;;
66567;SDS011;53422;49.296;6.900;2024-01-30T09:59:14;6.68;;;3.00;;
66567;SDS011;53422;49.296;6.900;2024-01-30T10:01:40;15.93;;;4.50;;
66567;SDS011;53422;49.296;6.900;2024-01-30T10:04:07;10.35;;;3.08;;
66567;SDS011;53422;49.296;6.900;2024-01-30T10:06:33;8.10;;;4.15;;
66567;SDS011;53422;49.296;6.900;2024-01-30T10:08:59;9.25;;;4.18;;
66567;SDS011;53422;49.296;6.900;2024-01-30T10:11:25;8.25;;;3.22;;
66567;SDS011;53422;49.296;6.900;2024-01-30T10:13:51;9.30;;;3.63;;
66567;SDS011;53422;49.296;6.900;2024-01-30T10:16:16;8.52;;;3.75;;
66567;SDS011;53422;49.296;6.900;2024-01-30T10:18:42;2.67;;;1.70;;
66567;SDS011;53422;49.296;6.900;2024-01-30T10:21:08;9.05;;;3.97;;
66567;SDS011;53422;49.296;6.900;2024-01-30T10:23:35;8.90;;;4.07;;
66567;SDS011;53422;49.296;6.900;2024-01-30T10:26:02;6.90;;;3.80;;
66567;SDS011;53422;49.296;6.900;2024-01-30T10:28:29;7.85;;;3.72;;
66567;SDS011;53422;49.296;6.900;2024-01-30T10:31:01;7.65;;;3.45;;
66567;SDS011;53422;49.296;6.900;2024-01-30T10:33:30;7.93;;;3.78;;
66567;SDS011;53422;49.296;6.900;2024-01-30T10:36:03;10.80;;;5.53;;
66567;SDS011;53422;49.296;6.900;2024-01-30T10:38:30;6.95;;;3.25;;
66567;SDS011;53422;49.296;6.900;2024-01-30T10:40:57;7.32;;;3.88;;
66567;SDS011;53422;49.296;6.900;2024-01-30T10:43:24;9.68;;;3.85;;
66567;SDS011;53422;49.296;6.900;2024-01-30T10:45:59;10.30;;;4.45;;
66567;SDS011;53422;49.296;6.900;2024-01-30T10:48:32;10.48;;;5.03;;
66567;SDS011;53422;49.296;6.900;2024-01-30T10:51:01;10.10;;;4.30;;
66567;SDS011;53422;49.296;6.900;2024-01-30T10:53:29;11.48;;;4.78;;
66567;SDS011;53422;49.296;6.900;2024-01-30T10:55:56;10.18;;;4.57;;
66567;SDS011;53422;49.296;6.900;2024-01-30T10:58:23;12.20;;;4.63;;
66567;SDS011;53422;49.296;6.900;2024-01-30T11:00:50;7.72;;;3.78;;
66567;SDS011;53422;49.296;6.900;2024-01-30T11:03:16;10.70;;;4.05;;
66567;SDS011;53422;49.296;6.900;2024-01-30T11:05:42;9.10;;;4.22;;
66567;SDS011;53422;49.296;6.900;2024-01-30T11:08:14;10.57;;;4.05;;
66567;SDS011;53422;49.296;6.900;2024-01-30T11:10:47;7.88;;;3.95;;
66567;SDS011;53422;49.296;6.900;2024-01-30T11:13:13;10.10;;;4.22;;
66567;SDS011;53422;49.296;6.900;2024-01-30T11:15:39;7.57;;;3.70;;
66567;SDS011;53422;49.296;6.900;2024-01-30T11:18:05;10.38;;;4.30;;
66567;SDS011;53422;49.296;6.900;2024-01-30T11:20:31;10.90;;;4.43;;
66567;SDS011;53422;49.296;6.900;2024-01-30T11:22:57;11.32;;;4.68;;
66567;SDS011;53422;49.296;6.900;2024-01-30T11:25:24;7.05;;;3.28;;
66567;SDS011;53422;49.296;6.900;2024-01-30T11:27:51;10.10;;;3.92;;
66567;SDS011;53422;49.296;6.900;2024-01-30T11:30:28;13.18;;;4.53;;
66567;SDS011;53422;49.296;6.900;2024-01-30T11:35:44;9.48;;;4.05;;
66567;SDS011;53422;49.296;6.900;2024-01-30T11:38:10;10.25;;;4.65;;
66567;SDS011;53422;49.296;6.900;2024-01-30T11:40:39;12.27;;;4.22;;
66567;SDS011;53422;49.296;6.900;2024-01-30T11:43:06;9.98;;;4.35;;
66567;SDS011;53422;49.296;6.900;2024-01-30T11:45:32;11.18;;;4.30;;
66567;SDS011;53422;49.296;6.900;2024-01-30T11:47:59;9.63;;;4.63;;
66567;SDS011;53422;49.296;6.900;2024-01-30T11:50:26;10.30;;;4.38;;
66567;SDS011;53422;49.296;6.900;2024-01-30T11:52:52;11.07;;;4.00;;
66567;SDS011;53422;49.296;6.900;2024-01-30T11:55:19;8.05;;;3.83;;
66567;SDS011;53422;49.296;6.900;2024-01-30T11:57:45;9.10;;;4.18;;
66567;SDS011;53422;49.296;6.900;2024-01-30T12:00:17;8.98;;;4.20;;
66567;SDS011;53422;49.296;6.900;2024-01-30T12:02:44;8.23;;;3.80;;
66567;SDS011;53422;49.296;6.900;2024-01-30T12:05:14;9.02;;;4.40;;
66567;SDS011;53422;49.296;6.900;2024-01-30T12:07:40;10.38;;;4.30;;
66567;SDS011;53422;49.296;6.900;2024-01-30T12:10:10;7.45;;;4.13;;
66567;SDS011;53422;49.296;6.900;2024-01-30T12:12:36;8.25;;;3.80;;
66567;SDS011;53422;49.296;6.900;2024-01-30T12:15:02;8.02;;;4.82;;
66567;SDS011;53422;49.296;6.900;2024-01-30T12:17:29;8.90;;;3.65;;
66567;SDS011;53422;49.296;6.900;2024-01-30T12:20:12;13.70;;;4.65;;
66567;SDS011;53422;49.296;6.900;2024-01-30T12:22:43;9.82;;;4.68;;
66567;SDS011;53422;49.296;6.900;2024-01-30T12:25:10;11.00;;;4.38;;
66567;SDS011;53422;49.296;6.900;2024-01-30T12:27:37;6.20;;;3.35;;
66567;SDS011;53422;49.296;6.900;2024-01-30T12:30:07;5.60;;;2.90;;
66567;SDS011;53422;49.296;6.900;2024-01-30T12:32:36;11.02;;;4.22;;
66567;SDS011;53422;49.296;6.900;2024-01-30T12:35:07;9.60;;;3.72;;
66567;SDS011;53422;49.296;6.900;2024-01-30T12:37:43;11.27;;;3.58;;
66567;SDS011;53422;49.296;6.900;2024-01-30T12:40:10;8.45;;;3.58;;
66567;SDS011;53422;49.296;6.900;2024-01-30T12:42:38;8.38;;;4.35;;
66567;SDS011;53422;49.296;6.900;2024-01-30T12:45:04;6.22;;;3.30;;
66567;SDS011;53422;49.296;6.900;2024-01-30T12:47:31;10.60;;;4.22;;
66567;SDS011;53422;49.296;6.900;2024-01-30T12:49:57;10.20;;;4.20;;
66567;SDS011;53422;49.296;6.900;2024-01-30T12:52:23;10.77;;;3.75;;
66567;SDS011;53422;49.296;6.900;2024-01-30T12:54:48;10.05;;;4.05;;
66567;SDS011;53422;49.296;6.900;2024-01-30T12:57:15;8.85;;;3.25;;
66567;SDS011;53422;49.296;6.900;2024-01-30T12:59:41;9.05;;;4.35;;
66567;SDS011;53422;49.296;6.900;2024-01-30T13:02:08;11.80;;;4.03;;
66567;SDS011;53422;49.296;6.900;2024-01-30T13:04:34;9.57;;;4.13;;
66567;SDS011;53422;49.296;6.900;2024-01-30T13:07:00;8.48;;;4.32;;
66567;SDS011;53422;49.296;6.900;2024-01-30T13:09:25;10.45;;;3.97;;
66567;SDS011;53422;49.296;6.900;2024-01-30T13:11:52;8.52;;;4.07;;
66567;SDS011;53422;49.296;6.900;2024-01-30T13:14:18;11.98;;;3.90;;
66567;SDS011;53422;49.296;6.900;2024-01-30T13:16:44;7.88;;;4.10;;
66567;SDS011;53422;49.296;6.900;2024-01-30T13:19:10;7.18;;;3.35;;
66567;SDS011;53422;49.296;6.900;2024-01-30T13:21:35;10.60;;;4.70;;
66567;SDS011;53422;49.296;6.900;2024-01-30T13:24:01;8.95;;;4.18;;
66567;SDS011;53422;49.296;6.900;2024-01-30T13:26:27;10.45;;;4.13;;
66567;SDS011;53422;49.296;6.900;2024-01-30T13:28:53;9.52;;;4.00;;
66567;SDS011;53422;49.296;6.900;2024-01-30T13:31:19;6.72;;;3.38;;
66567;SDS011;53422;49.296;6.900;2024-01-30T13:33:45;8.57;;;3.72;;
66567;SDS011;53422;49.296;6.900;2024-01-30T13:36:11;9.38;;;4.65;;
66567;SDS011;53422;49.296;6.900;2024-01-30T13:38:37;12.73;;;4.50;;
66567;SDS011;53422;49.296;6.900;2024-01-30T13:41:03;9.00;;;3.90;;
66567;SDS011;53422;49.296;6.900;2024-01-30T13:43:28;10.38;;;4.47;;
66567;SDS011;53422;49.296;6.900;2024-01-30T13:45:54;9.30;;;3.95;;
66567;SDS011;53422;49.296;6.900;2024-01-30T13:48:20;9.70;;;3.85;;
66567;SDS011;53422;49.296;6.900;2024-01-30T13:50:46;8.55;;;4.22;;
66567;SDS011;53422;49.296;6.900;2024-01-30T13:53:12;10.52;;;3.88;;
66567;SDS011;53422;49.296;6.900;2024-01-30T13:55:38;8.38;;;4.22;;
66567;SDS011;53422;49.296;6.900;2024-01-30T13:58:04;9.80;;;4.60;;
66567;SDS011;53422;49.296;6.900;2024-01-30T14:00:30;9.55;;;3.78;;
66567;SDS011;53422;49.296;6.900;2024-01-30T14:02:57;10.45;;;4.72;;
66567;SDS011;53422;49.296;6.900;2024-01-30T14:05:24;9.55;;;4.03;;
66567;SDS011;53422;49.296;6.900;2024-01-30T14:07:50;9.00;;;4.20;;
66567;SDS011;53422;49.296;6.900;2024-01-30T14:10:16;9.02;;;4.53;;
66567;SDS011;53422;49.296;6.900;2024-01-30T14:12:42;7.38;;;4.25;;
66567;SDS011;53422;49.296;6.900;2024-01-30T14:15:09;7.20;;;3.30;;
66567;SDS011;53422;49.296;6.900;2024-01-30T14:17:35;9.60;;;4.03;;
66567;SDS011;53422;49.296;6.900;2024-01-30T14:20:01;8.15;;;3.97;;
66567;SDS011;53422;49.296;6.900;2024-01-30T14:22:31;6.13;;;3.22;;
66567;SDS011;53422;49.296;6.900;2024-01-30T14:24:57;7.50;;;3.90;;
66567;SDS011;53422;49.296;6.900;2024-01-30T14:27:22;8.98;;;3.92;;
66567;SDS011;53422;49.296;6.900;2024-01-30T14:29:48;7.22;;;3.67;;
66567;SDS011;53422;49.296;6.900;2024-01-30T14:32:13;8.00;;;3.83;;
66567;SDS011;53422;49.296;6.900;2024-01-30T14:34:39;7.25;;;3.80;;
66567;SDS011;53422;49.296;6.900;2024-01-30T14:37:05;8.60;;;4.20;;
66567;SDS011;53422;49.296;6.900;2024-01-30T14:39:30;9.82;;;4.43;;
66567;SDS011;53422;49.296;6.900;2024-01-30T14:41:56;9.38;;;3.67;;